sensor_id;sensor_type;location;lat;lon;timestamp;P1;durP1;ratioP1;P2;durP2;ratioP2
54263;SDS011;40178;53.042;6.406;2023-03-14T00:02:02;14.90;;;3.20;;
54263;SDS011;40178;53.042;6.406;2023-03-14T00:04:28;20.88;;;3.35;;
54263;SDS011;40178;53.042;6.406;2023-03-14T00:06:53;12.85;;;3.75;;
54263;SDS011;40178;53.042;6.406;2023-03-14T00:09:19;18.83;;;3.50;;
54263;SDS011;40178;53.042;6.406;2023-03-14T00:11:44;11.07;;;2.90;;
54263;SDS011;40178;53.042;6.406;2023-03-14T00:14:10;12.80;;;3.20;;
54263;SDS011;40178;53.042;6.406;2023-03-14T00:16:36;13.55;;;3.55;;
54263;SDS011;40178;53.042;6.406;2023-03-14T00:19:02;16.67;;;3.47;;
54263;SDS011;40178;53.042;6.406;2023-03-14T00:21:28;12.55;;;2.83;;
54263;SDS011;40178;53.042;6.406;2023-03-14T00:23:53;14.85;;;3.60;;
54263;SDS011;40178;53.042;6.406;2023-03-14T00:26:20;14.05;;;3.35;;
54263;SDS011;40178;53.042;6.406;2023-03-14T00:28:47;14.77;;;3.80;;
54263;SDS011;40178;53.042;6.406;2023-03-14T00:31:16;13.80;;;3.95;;
54263;SDS011;40178;53.042;6.406;2023-03-14T00:33:42;15.82;;;3.70;;
54263;SDS011;40178;53.042;6.406;2023-03-14T00:36:10;18.33;;;3.53;;
54263;SDS011;40178;53.042;6.406;2023-03-14T00:38:37;15.70;;;3.20;;
54263;SDS011;40178;53.042;6.406;2023-03-14T00:41:08;14.05;;;3.30;;
54263;SDS011;40178;53.042;6.406;2023-03-14T00:43:36;13.20;;;3.33;;
54263;SDS011;40178;53.042;6.406;2023-03-14T00:46:02;15.82;;;3.13;;
54263;SDS011;40178;53.042;6.406;2023-03-14T00:48:28;16.15;;;3.10;;
54263;SDS011;40178;53.042;6.406;2023-03-14T00:50:54;17.38;;;3.42;;
54263;SDS011;40178;53.042;6.406;2023-03-14T00:53:19;14.38;;;3.65;;
54263;SDS011;40178;53.042;6.406;2023-03-14T00:55:45;16.58;;;3.95;;
54263;SDS011;40178;53.042;6.406;2023-03-14T00:58:12;15.38;;;3.83;;
54263;SDS011;40178;53.042;6.406;2023-03-14T01:00:39;11.73;;;3.92;;
54263;SDS011;40178;53.042;6.406;2023-03-14T01:03:05;14.35;;;3.58;;
54263;SDS011;40178;53.042;6.406;2023-03-14T01:05:31;12.15;;;2.80;;
54263;SDS011;40178;53.042;6.406;2023-03-14T01:07:57;14.40;;;2.70;;
54263;SDS011;40178;53.042;6.406;2023-03-14T01:10:23;12.68;;;3.38;;
54263;SDS011;40178;53.042;6.406;2023-03-14T01:12:49;12.55;;;3.40;;
54263;SDS011;40178;53.042;6.406;2023-03-14T01:15:15;13.60;;;3.08;;
54263;SDS011;40178;53.042;6.406;2023-03-14T01:17:41;13.50;;;3.00;;
54263;SDS011;40178;53.042;6.406;2023-03-14T01:20:07;11.95;;;3.20;;
54263;SDS011;40178;53.042;6.406;2023-03-14T01:22:35;15.63;;;3.05;;
54263;SDS011;40178;53.042;6.406;2023-03-14T01:25:04;13.30;;;3.22;;
54263;SDS011;40178;53.042;6.406;2023-03-14T01:27:30;16.13;;;2.67;;
54263;SDS011;40178;53.042;6.406;2023-03-14T01:29:55;18.42;;;3.08;;
54263;SDS011;40178;53.042;6.406;2023-03-14T01:32:21;11.48;;;2.42;;
54263;SDS011;40178;53.042;6.406;2023-03-14T01:34:47;8.48;;;2.20;;
54263;SDS011;40178;53.042;6.406;2023-03-14T01:37:12;10.73;;;3.03;;
54263;SDS011;40178;53.042;6.406;2023-03-14T01:39:38;12.45;;;2.80;;
54263;SDS011;40178;53.042;6.406;2023-03-14T01:42:04;7.72;;;2.33;;
54263;SDS011;40178;53.042;6.406;2023-03-14T01:47:13;13.05;;;2.92;;
54263;SDS011;40178;53.042;6.406;2023-03-14T01:49:39;12.18;;;2.47;;
54263;SDS011;40178;53.042;6.406;2023-03-14T01:54:46;17.15;;;2.85;;
54263;SDS011;40178;53.042;6.406;2023-03-14T02:00:06;10.65;;;2.00;;
54263;SDS011;40178;53.042;6.406;2023-03-14T02:02:39;9.82;;;1.80;;
54263;SDS011;40178;53.042;6.406;2023-03-14T02:05:09;11.77;;;2.15;;
54263;SDS011;40178;53.042;6.406;2023-03-14T02:07:50;10.63;;;2.00;;
54263;SDS011;40178;53.042;6.406;2023-03-14T02:10:18;7.65;;;2.22;;
54263;SDS011;40178;53.042;6.406;2023-03-14T02:12:47;11.32;;;2.20;;
54263;SDS011;40178;53.042;6.406;2023-03-14T02:15:14;10.40;;;2.47;;
54263;SDS011;40178;53.042;6.406;2023-03-14T02:17:40;10.90;;;2.53;;
54263;SDS011;40178;53.042;6.406;2023-03-14T02:23:26;11.10;;;2.03;;
54263;SDS011;40178;53.042;6.406;2023-03-14T02:26:11;10.02;;;2.28;;
54263;SDS011;40178;53.042;6.406;2023-03-14T02:28:41;14.15;;;2.17;;
54263;SDS011;40178;53.042;6.406;2023-03-14T02:31:07;8.52;;;2.20;;
54263;SDS011;40178;53.042;6.406;2023-03-14T02:33:33;8.75;;;1.92;;
54263;SDS011;40178;53.042;6.406;2023-03-14T02:36:02;7.53;;;2.17;;
54263;SDS011;40178;53.042;6.406;2023-03-14T02:41:00;11.82;;;2.22;;
54263;SDS011;40178;53.042;6.406;2023-03-14T02:43:26;7.00;;;1.75;;
54263;SDS011;40178;53.042;6.406;2023-03-14T02:45:51;10.65;;;2.17;;
54263;SDS011;40178;53.042;6.406;2023-03-14T02:50:46;6.63;;;1.88;;
54263;SDS011;40178;53.042;6.406;2023-03-14T02:53:16;10.85;;;2.20;;
54263;SDS011;40178;53.042;6.406;2023-03-14T02:55:47;13.60;;;2.75;;
54263;SDS011;40178;53.042;6.406;2023-03-14T02:58:13;11.18;;;2.17;;
54263;SDS011;40178;53.042;6.406;2023-03-14T03:00:39;10.82;;;2.20;;
54263;SDS011;40178;53.042;6.406;2023-03-14T03:03:05;10.38;;;2.40;;
54263;SDS011;40178;53.042;6.406;2023-03-14T03:05:31;9.10;;;1.98;;
54263;SDS011;40178;53.042;6.406;2023-03-14T03:07:57;7.22;;;2.20;;
54263;SDS011;40178;53.042;6.406;2023-03-14T03:10:23;8.52;;;2.60;;
54263;SDS011;40178;53.042;6.406;2023-03-14T03:12:49;10.02;;;2.67;;
54263;SDS011;40178;53.042;6.406;2023-03-14T03:15:16;7.65;;;2.60;;
54263;SDS011;40178;53.042;6.406;2023-03-14T03:17:42;11.73;;;2.72;;
54263;SDS011;40178;53.042;6.406;2023-03-14T03:20:08;9.88;;;3.13;;
54263;SDS011;40178;53.042;6.406;2023-03-14T03:25:05;12.23;;;2.75;;
54263;SDS011;40178;53.042;6.406;2023-03-14T03:27:32;14.52;;;3.95;;
54263;SDS011;40178;53.042;6.406;2023-03-14T03:29:59;13.07;;;3.85;;
54263;SDS011;40178;53.042;6.406;2023-03-14T03:32:26;10.52;;;4.18;;
54263;SDS011;40178;53.042;6.406;2023-03-14T03:34:52;16.42;;;4.38;;
54263;SDS011;40178;53.042;6.406;2023-03-14T03:37:17;11.23;;;3.83;;
54263;SDS011;40178;53.042;6.406;2023-03-14T03:39:43;11.20;;;3.67;;
54263;SDS011;40178;53.042;6.406;2023-03-14T03:42:09;15.13;;;4.53;;
54263;SDS011;40178;53.042;6.406;2023-03-14T03:44:34;11.82;;;4.53;;
54263;SDS011;40178;53.042;6.406;2023-03-14T03:47:00;12.43;;;4.05;;
54263;SDS011;40178;53.042;6.406;2023-03-14T03:49:32;14.63;;;4.78;;
54263;SDS011;40178;53.042;6.406;2023-03-14T03:51:58;18.45;;;4.75;;
54263;SDS011;40178;53.042;6.406;2023-03-14T03:54:24;21.42;;;4.65;;
54263;SDS011;40178;53.042;6.406;2023-03-14T03:56:50;18.20;;;4.90;;
54263;SDS011;40178;53.042;6.406;2023-03-14T03:59:16;13.10;;;4.55;;
54263;SDS011;40178;53.042;6.406;2023-03-14T04:01:42;15.15;;;4.45;;
54263;SDS011;40178;53.042;6.406;2023-03-14T04:04:08;15.98;;;4.95;;
54263;SDS011;40178;53.042;6.406;2023-03-14T04:06:33;12.85;;;4.65;;
54263;SDS011;40178;53.042;6.406;2023-03-14T04:08:59;14.77;;;5.03;;
54263;SDS011;40178;53.042;6.406;2023-03-14T04:11:25;16.15;;;5.07;;
54263;SDS011;40178;53.042;6.406;2023-03-14T04:13:50;12.38;;;4.60;;
54263;SDS011;40178;53.042;6.406;2023-03-14T04:16:17;17.05;;;5.40;;
54263;SDS011;40178;53.042;6.406;2023-03-14T04:18:44;15.20;;;5.50;;
54263;SDS011;40178;53.042;6.406;2023-03-14T04:21:10;15.77;;;5.50;;
54263;SDS011;40178;53.042;6.406;2023-03-14T04:23:35;16.23;;;5.90;;
54263;SDS011;40178;53.042;6.406;2023-03-14T04:26:01;13.43;;;5.15;;
54263;SDS011;40178;53.042;6.406;2023-03-14T04:28:27;13.85;;;5.93;;
54263;SDS011;40178;53.042;6.406;2023-03-14T04:30:53;14.00;;;5.60;;
54263;SDS011;40178;53.042;6.406;2023-03-14T04:33:19;14.98;;;5.40;;
54263;SDS011;40178;53.042;6.406;2023-03-14T04:35:45;15.95;;;5.47;;
54263;SDS011;40178;53.042;6.406;2023-03-14T04:38:11;15.13;;;6.30;;
54263;SDS011;40178;53.042;6.406;2023-03-14T04:40:37;12.85;;;5.05;;
54263;SDS011;40178;53.042;6.406;2023-03-14T04:43:04;15.85;;;5.88;;
54263;SDS011;40178;53.042;6.406;2023-03-14T04:45:30;17.42;;;5.53;;
54263;SDS011;40178;53.042;6.406;2023-03-14T04:47:55;18.25;;;5.80;;
54263;SDS011;40178;53.042;6.406;2023-03-14T04:50:21;13.70;;;5.22;;
54263;SDS011;40178;53.042;6.406;2023-03-14T04:52:47;12.43;;;4.30;;
54263;SDS011;40178;53.042;6.406;2023-03-14T04:55:13;14.68;;;4.47;;
54263;SDS011;40178;53.042;6.406;2023-03-14T04:57:39;12.95;;;4.30;;
54263;SDS011;40178;53.042;6.406;2023-03-14T05:00:04;16.40;;;4.43;;
54263;SDS011;40178;53.042;6.406;2023-03-14T05:02:34;12.35;;;4.43;;
54263;SDS011;40178;53.042;6.406;2023-03-14T05:05:00;14.90;;;4.30;;
54263;SDS011;40178;53.042;6.406;2023-03-14T05:07:26;12.48;;;4.35;;
54263;SDS011;40178;53.042;6.406;2023-03-14T05:09:51;12.93;;;4.57;;
54263;SDS011;40178;53.042;6.406;2023-03-14T05:12:18;15.90;;;4.63;;
54263;SDS011;40178;53.042;6.406;2023-03-14T05:14:44;17.38;;;4.72;;
54263;SDS011;40178;53.042;6.406;2023-03-14T05:17:10;13.98;;;4.78;;
54263;SDS011;40178;53.042;6.406;2023-03-14T05:19:36;11.77;;;4.13;;
54263;SDS011;40178;53.042;6.406;2023-03-14T05:22:02;13.75;;;4.32;;
54263;SDS011;40178;53.042;6.406;2023-03-14T05:24:27;13.60;;;4.68;;
54263;SDS011;40178;53.042;6.406;2023-03-14T05:26:53;11.52;;;4.40;;
54263;SDS011;40178;53.042;6.406;2023-03-14T05:29:19;16.67;;;3.88;;
54263;SDS011;40178;53.042;6.406;2023-03-14T05:31:44;14.93;;;4.80;;
54263;SDS011;40178;53.042;6.406;2023-03-14T05:34:10;11.38;;;4.70;;
54263;SDS011;40178;53.042;6.406;2023-03-14T05:36:35;10.32;;;4.32;;
54263;SDS011;40178;53.042;6.406;2023-03-14T05:39:01;15.48;;;4.85;;
54263;SDS011;40178;53.042;6.406;2023-03-14T05:41:27;14.15;;;4.38;;
54263;SDS011;40178;53.042;6.406;2023-03-14T05:43:54;12.25;;;4.55;;
54263;SDS011;40178;53.042;6.406;2023-03-14T05:46:19;14.07;;;4.88;;
54263;SDS011;40178;53.042;6.406;2023-03-14T05:48:45;15.88;;;4.78;;
54263;SDS011;40178;53.042;6.406;2023-03-14T05:51:10;13.43;;;4.68;;
54263;SDS011;40178;53.042;6.406;2023-03-14T05:53:36;14.52;;;4.20;;
54263;SDS011;40178;53.042;6.406;2023-03-14T05:56:02;12.13;;;4.97;;
54263;SDS011;40178;53.042;6.406;2023-03-14T05:58:27;12.77;;;4.72;;
54263;SDS011;40178;53.042;6.406;2023-03-14T06:00:53;16.80;;;4.45;;
54263;SDS011;40178;53.042;6.406;2023-03-14T06:03:19;12.52;;;4.65;;
54263;SDS011;40178;53.042;6.406;2023-03-14T06:05:44;12.32;;;4.35;;
54263;SDS011;40178;53.042;6.406;2023-03-14T06:08:10;14.55;;;4.57;;
54263;SDS011;40178;53.042;6.406;2023-03-14T06:10:36;9.60;;;4.13;;
54263;SDS011;40178;53.042;6.406;2023-03-14T06:13:02;12.85;;;4.85;;
54263;SDS011;40178;53.042;6.406;2023-03-14T06:15:28;11.02;;;4.00;;
54263;SDS011;40178;53.042;6.406;2023-03-14T06:17:54;10.52;;;3.75;;
54263;SDS011;40178;53.042;6.406;2023-03-14T06:20:20;12.20;;;4.30;;
54263;SDS011;40178;53.042;6.406;2023-03-14T06:22:46;9.80;;;3.88;;
54263;SDS011;40178;53.042;6.406;2023-03-14T06:25:12;9.02;;;3.22;;
54263;SDS011;40178;53.042;6.406;2023-03-14T06:27:38;7.95;;;3.10;;
54263;SDS011;40178;53.042;6.406;2023-03-14T06:30:03;10.82;;;3.88;;
54263;SDS011;40178;53.042;6.406;2023-03-14T06:32:30;8.88;;;3.55;;
54263;SDS011;40178;53.042;6.406;2023-03-14T06:34:55;8.68;;;3.83;;
54263;SDS011;40178;53.042;6.406;2023-03-14T06:37:22;10.23;;;3.85;;
54263;SDS011;40178;53.042;6.406;2023-03-14T06:39:47;9.43;;;2.83;;
54263;SDS011;40178;53.042;6.406;2023-03-14T06:42:13;8.15;;;3.53;;
54263;SDS011;40178;53.042;6.406;2023-03-14T06:44:39;11.15;;;3.35;;
54263;SDS011;40178;53.042;6.406;2023-03-14T06:47:04;10.60;;;2.13;;
54263;SDS011;40178;53.042;6.406;2023-03-14T06:49:30;6.07;;;1.23;;
54263;SDS011;40178;53.042;6.406;2023-03-14T06:51:55;4.68;;;0.70;;
54263;SDS011;40178;53.042;6.406;2023-03-14T06:54:21;3.40;;;0.60;;
54263;SDS011;40178;53.042;6.406;2023-03-14T06:56:46;8.93;;;1.05;;
54263;SDS011;40178;53.042;6.406;2023-03-14T06:59:12;6.63;;;1.05;;
54263;SDS011;40178;53.042;6.406;2023-03-14T07:01:38;4.85;;;0.68;;
54263;SDS011;40178;53.042;6.406;2023-03-14T07:04:05;5.88;;;0.60;;
54263;SDS011;40178;53.042;6.406;2023-03-14T07:06:31;5.28;;;0.93;;
54263;SDS011;40178;53.042;6.406;2023-03-14T07:08:57;4.30;;;0.50;;
54263;SDS011;40178;53.042;6.406;2023-03-14T07:11:23;3.53;;;0.40;;
54263;SDS011;40178;53.042;6.406;2023-03-14T07:13:49;4.85;;;0.60;;
54263;SDS011;40178;53.042;6.406;2023-03-14T07:16:15;9.55;;;0.50;;
54263;SDS011;40178;53.042;6.406;2023-03-14T07:18:40;4.10;;;0.52;;
54263;SDS011;40178;53.042;6.406;2023-03-14T07:21:06;3.50;;;0.38;;
54263;SDS011;40178;53.042;6.406;2023-03-14T07:23:34;3.70;;;0.30;;
54263;SDS011;40178;53.042;6.406;2023-03-14T07:26:00;2.67;;;0.30;;
54263;SDS011;40178;53.042;6.406;2023-03-14T07:30:53;4.03;;;0.28;;
54263;SDS011;40178;53.042;6.406;2023-03-14T07:33:19;3.78;;;0.22;;
54263;SDS011;40178;53.042;6.406;2023-03-14T07:35:48;1.23;;;0.20;;
54263;SDS011;40178;53.042;6.406;2023-03-14T07:38:15;2.78;;;0.30;;
54263;SDS011;40178;53.042;6.406;2023-03-14T07:40:41;3.70;;;0.40;;
54263;SDS011;40178;53.042;6.406;2023-03-14T07:43:07;2.55;;;0.20;;
54263;SDS011;40178;53.042;6.406;2023-03-14T07:45:32;2.22;;;0.13;;
54263;SDS011;40178;53.042;6.406;2023-03-14T07:47:58;4.30;;;0.28;;
54263;SDS011;40178;53.042;6.406;2023-03-14T07:50:24;0.70;;;0.22;;
54263;SDS011;40178;53.042;6.406;2023-03-14T07:52:50;0.45;;;0.20;;
54263;SDS011;40178;53.042;6.406;2023-03-14T07:55:16;2.60;;;0.30;;
54263;SDS011;40178;53.042;6.406;2023-03-14T07:57:42;3.33;;;0.60;;
54263;SDS011;40178;53.042;6.406;2023-03-14T08:00:09;1.25;;;0.25;;
54263;SDS011;40178;53.042;6.406;2023-03-14T08:02:36;2.72;;;0.22;;
54263;SDS011;40178;53.042;6.406;2023-03-14T08:05:02;2.35;;;0.30;;
54263;SDS011;40178;53.042;6.406;2023-03-14T08:07:28;4.05;;;0.30;;
54263;SDS011;40178;53.042;6.406;2023-03-14T08:09:54;3.42;;;0.22;;
54263;SDS011;40178;53.042;6.406;2023-03-14T08:12:19;1.85;;;0.20;;
54263;SDS011;40178;53.042;6.406;2023-03-14T08:14:45;1.13;;;0.20;;
54263;SDS011;40178;53.042;6.406;2023-03-14T08:17:11;3.38;;;0.60;;
54263;SDS011;40178;53.042;6.406;2023-03-14T08:19:37;5.07;;;0.40;;
54263;SDS011;40178;53.042;6.406;2023-03-14T08:22:03;3.78;;;0.60;;
54263;SDS011;40178;53.042;6.406;2023-03-14T08:24:29;4.13;;;0.20;;
54263;SDS011;40178;53.042;6.406;2023-03-14T08:26:55;3.63;;;0.35;;
54263;SDS011;40178;53.042;6.406;2023-03-14T08:29:20;6.75;;;0.65;;
54263;SDS011;40178;53.042;6.406;2023-03-14T08:31:46;11.60;;;1.42;;
54263;SDS011;40178;53.042;6.406;2023-03-14T08:34:13;3.80;;;0.32;;
54263;SDS011;40178;53.042;6.406;2023-03-14T08:36:40;4.00;;;0.40;;
54263;SDS011;40178;53.042;6.406;2023-03-14T08:39:05;2.88;;;0.50;;
54263;SDS011;40178;53.042;6.406;2023-03-14T08:41:32;5.55;;;0.40;;
54263;SDS011;40178;53.042;6.406;2023-03-14T08:43:58;4.05;;;0.47;;
54263;SDS011;40178;53.042;6.406;2023-03-14T08:46:24;3.92;;;0.30;;
54263;SDS011;40178;53.042;6.406;2023-03-14T08:48:49;5.85;;;0.70;;
54263;SDS011;40178;53.042;6.406;2023-03-14T08:51:15;4.80;;;0.60;;
54263;SDS011;40178;53.042;6.406;2023-03-14T08:53:41;6.38;;;0.50;;
54263;SDS011;40178;53.042;6.406;2023-03-14T08:56:07;4.88;;;0.40;;
54263;SDS011;40178;53.042;6.406;2023-03-14T08:58:35;2.05;;;0.50;;
54263;SDS011;40178;53.042;6.406;2023-03-14T09:01:03;6.35;;;0.95;;
54263;SDS011;40178;53.042;6.406;2023-03-14T09:03:32;5.03;;;0.93;;
54263;SDS011;40178;53.042;6.406;2023-03-14T09:06:02;7.50;;;0.75;;
54263;SDS011;40178;53.042;6.406;2023-03-14T09:08:32;5.73;;;0.80;;
54263;SDS011;40178;53.042;6.406;2023-03-14T09:10:58;6.55;;;1.10;;
54263;SDS011;40178;53.042;6.406;2023-03-14T09:13:24;4.63;;;0.60;;
54263;SDS011;40178;53.042;6.406;2023-03-14T09:15:54;7.97;;;1.40;;
54263;SDS011;40178;53.042;6.406;2023-03-14T09:18:20;6.30;;;0.80;;
54263;SDS011;40178;53.042;6.406;2023-03-14T09:20:47;6.95;;;1.38;;
54263;SDS011;40178;53.042;6.406;2023-03-14T09:23:14;9.85;;;0.88;;
54263;SDS011;40178;53.042;6.406;2023-03-14T09:25:39;7.95;;;1.27;;
54263;SDS011;40178;53.042;6.406;2023-03-14T09:28:05;4.88;;;1.52;;
54263;SDS011;40178;53.042;6.406;2023-03-14T09:30:31;8.85;;;1.23;;
54263;SDS011;40178;53.042;6.406;2023-03-14T09:32:56;13.88;;;2.10;;
54263;SDS011;40178;53.042;6.406;2023-03-14T09:35:22;10.25;;;1.42;;
54263;SDS011;40178;53.042;6.406;2023-03-14T09:37:48;11.70;;;2.08;;
54263;SDS011;40178;53.042;6.406;2023-03-14T09:40:17;9.18;;;1.25;;
54263;SDS011;40178;53.042;6.406;2023-03-14T09:42:45;9.55;;;0.90;;
54263;SDS011;40178;53.042;6.406;2023-03-14T09:45:18;12.27;;;2.05;;
54263;SDS011;40178;53.042;6.406;2023-03-14T09:47:58;10.10;;;1.65;;
54263;SDS011;40178;53.042;6.406;2023-03-14T09:50:27;12.52;;;1.55;;
54263;SDS011;40178;53.042;6.406;2023-03-14T09:55:29;11.05;;;1.58;;
54263;SDS011;40178;53.042;6.406;2023-03-14T09:57:57;9.70;;;1.30;;
54263;SDS011;40178;53.042;6.406;2023-03-14T10:00:27;8.38;;;1.48;;
54263;SDS011;40178;53.042;6.406;2023-03-14T10:05:24;8.45;;;1.70;;
54263;SDS011;40178;53.042;6.406;2023-03-14T10:07:52;12.32;;;1.10;;
54263;SDS011;40178;53.042;6.406;2023-03-14T10:10:22;8.25;;;1.42;;
54263;SDS011;40178;53.042;6.406;2023-03-14T10:12:59;9.90;;;1.92;;
54263;SDS011;40178;53.042;6.406;2023-03-14T10:15:36;9.45;;;1.63;;
54263;SDS011;40178;53.042;6.406;2023-03-14T10:18:03;15.43;;;1.95;;
54263;SDS011;40178;53.042;6.406;2023-03-14T10:20:38;10.37;;;1.60;;
54263;SDS011;40178;53.042;6.406;2023-03-14T10:23:17;8.23;;;1.52;;
54263;SDS011;40178;53.042;6.406;2023-03-14T10:26:00;11.75;;;2.28;;
54263;SDS011;40178;53.042;6.406;2023-03-14T10:28:44;10.00;;;1.27;;
54263;SDS011;40178;53.042;6.406;2023-03-14T10:31:12;8.95;;;1.48;;
54263;SDS011;40178;53.042;6.406;2023-03-14T10:33:39;6.93;;;0.80;;
54263;SDS011;40178;53.042;6.406;2023-03-14T10:36:06;7.03;;;1.83;;
54263;SDS011;40178;53.042;6.406;2023-03-14T10:38:45;8.15;;;1.58;;
54263;SDS011;40178;53.042;6.406;2023-03-14T10:41:24;11.95;;;1.73;;
54263;SDS011;40178;53.042;6.406;2023-03-14T10:43:53;13.75;;;1.55;;
54263;SDS011;40178;53.042;6.406;2023-03-14T10:46:21;6.70;;;0.82;;
54263;SDS011;40178;53.042;6.406;2023-03-14T10:48:50;7.35;;;1.23;;
54263;SDS011;40178;53.042;6.406;2023-03-14T10:53:49;10.70;;;1.45;;
54263;SDS011;40178;53.042;6.406;2023-03-14T10:56:27;10.30;;;1.42;;
54263;SDS011;40178;53.042;6.406;2023-03-14T10:58:58;12.65;;;1.85;;
54263;SDS011;40178;53.042;6.406;2023-03-14T11:07:03;5.75;;;1.00;;
54263;SDS011;40178;53.042;6.406;2023-03-14T11:15:05;5.70;;;0.98;;
54263;SDS011;40178;53.042;6.406;2023-03-14T11:20:58;8.88;;;0.70;;
54263;SDS011;40178;53.042;6.406;2023-03-14T11:28:39;4.43;;;0.80;;
54263;SDS011;40178;53.042;6.406;2023-03-14T11:36:18;5.35;;;0.73;;
54263;SDS011;40178;53.042;6.406;2023-03-14T11:39:12;4.95;;;0.80;;
54263;SDS011;40178;53.042;6.406;2023-03-14T11:41:41;5.40;;;0.88;;
54263;SDS011;40178;53.042;6.406;2023-03-14T11:44:20;6.30;;;0.75;;
54263;SDS011;40178;53.042;6.406;2023-03-14T11:47:02;3.85;;;0.65;;
54263;SDS011;40178;53.042;6.406;2023-03-14T11:49:47;6.63;;;0.70;;
54263;SDS011;40178;53.042;6.406;2023-03-14T11:55:13;5.90;;;0.60;;
54263;SDS011;40178;53.042;6.406;2023-03-14T11:57:53;6.88;;;0.85;;
54263;SDS011;40178;53.042;6.406;2023-03-14T12:00:23;6.53;;;1.27;;
54263;SDS011;40178;53.042;6.406;2023-03-14T12:02:54;3.58;;;0.77;;
54263;SDS011;40178;53.042;6.406;2023-03-14T12:08:18;3.05;;;0.47;;
54263;SDS011;40178;53.042;6.406;2023-03-14T12:10:49;4.70;;;1.17;;
54263;SDS011;40178;53.042;6.406;2023-03-14T12:13:18;5.40;;;0.65;;
54263;SDS011;40178;53.042;6.406;2023-03-14T12:15:54;5.47;;;0.85;;
54263;SDS011;40178;53.042;6.406;2023-03-14T12:18:30;5.10;;;0.60;;
54263;SDS011;40178;53.042;6.406;2023-03-14T12:21:04;6.18;;;0.90;;
54263;SDS011;40178;53.042;6.406;2023-03-14T12:23:44;3.83;;;0.50;;
54263;SDS011;40178;53.042;6.406;2023-03-14T12:28:51;4.60;;;0.50;;
54263;SDS011;40178;53.042;6.406;2023-03-14T12:31:40;4.47;;;0.70;;
54263;SDS011;40178;53.042;6.406;2023-03-14T12:42:02;6.45;;;0.80;;
54263;SDS011;40178;53.042;6.406;2023-03-14T12:44:43;5.65;;;0.73;;
54263;SDS011;40178;53.042;6.406;2023-03-14T12:49:46;7.93;;;0.77;;
54263;SDS011;40178;53.042;6.406;2023-03-14T12:53:05;3.50;;;0.68;;
54263;SDS011;40178;53.042;6.406;2023-03-14T12:55:24;5.70;;;0.95;;
54263;SDS011;40178;53.042;6.406;2023-03-14T13:00:59;4.07;;;0.70;;
54263;SDS011;40178;53.042;6.406;2023-03-14T13:03:36;2.70;;;0.40;;
54263;SDS011;40178;53.042;6.406;2023-03-14T13:06:08;4.35;;;0.82;;
54263;SDS011;40178;53.042;6.406;2023-03-14T13:08:42;6.03;;;0.55;;
54263;SDS011;40178;53.042;6.406;2023-03-14T13:11:19;6.43;;;1.23;;
54263;SDS011;40178;53.042;6.406;2023-03-14T13:13:47;10.50;;;0.75;;
54263;SDS011;40178;53.042;6.406;2023-03-14T13:16:16;4.03;;;0.60;;
54263;SDS011;40178;53.042;6.406;2023-03-14T13:18:48;2.63;;;0.68;;
54263;SDS011;40178;53.042;6.406;2023-03-14T13:21:39;4.28;;;0.73;;
54263;SDS011;40178;53.042;6.406;2023-03-14T13:24:06;4.55;;;0.40;;
54263;SDS011;40178;53.042;6.406;2023-03-14T13:26:45;8.05;;;1.02;;
54263;SDS011;40178;53.042;6.406;2023-03-14T13:31:42;4.40;;;0.45;;
54263;SDS011;40178;53.042;6.406;2023-03-14T13:34:09;1.80;;;0.40;;
54263;SDS011;40178;53.042;6.406;2023-03-14T13:36:36;3.83;;;0.52;;
54263;SDS011;40178;53.042;6.406;2023-03-14T13:39:02;2.28;;;0.40;;
54263;SDS011;40178;53.042;6.406;2023-03-14T13:41:31;7.47;;;0.80;;
54263;SDS011;40178;53.042;6.406;2023-03-14T13:44:07;5.05;;;0.90;;
54263;SDS011;40178;53.042;6.406;2023-03-14T13:46:37;5.80;;;0.77;;
54263;SDS011;40178;53.042;6.406;2023-03-14T13:49:10;8.75;;;1.10;;
54263;SDS011;40178;53.042;6.406;2023-03-14T13:51:43;4.30;;;0.60;;
54263;SDS011;40178;53.042;6.406;2023-03-14T13:54:16;3.05;;;0.63;;
54263;SDS011;40178;53.042;6.406;2023-03-14T13:56:43;6.68;;;1.23;;
54263;SDS011;40178;53.042;6.406;2023-03-14T13:59:28;4.80;;;0.65;;
54263;SDS011;40178;53.042;6.406;2023-03-14T14:01:58;5.70;;;1.25;;
54263;SDS011;40178;53.042;6.406;2023-03-14T14:04:28;4.18;;;0.40;;
54263;SDS011;40178;53.042;6.406;2023-03-14T14:06:58;3.42;;;0.40;;
54263;SDS011;40178;53.042;6.406;2023-03-14T14:09:27;6.30;;;0.43;;
54263;SDS011;40178;53.042;6.406;2023-03-14T14:12:04;4.75;;;0.82;;
54263;SDS011;40178;53.042;6.406;2023-03-14T14:14:43;4.97;;;0.50;;
54263;SDS011;40178;53.042;6.406;2023-03-14T14:17:13;6.30;;;1.13;;
54263;SDS011;40178;53.042;6.406;2023-03-14T14:19:44;9.48;;;1.13;;
54263;SDS011;40178;53.042;6.406;2023-03-14T14:22:12;3.10;;;0.50;;
54263;SDS011;40178;53.042;6.406;2023-03-14T14:24:38;3.10;;;0.70;;
54263;SDS011;40178;53.042;6.406;2023-03-14T14:27:15;6.82;;;0.82;;
54263;SDS011;40178;53.042;6.406;2023-03-14T14:29:56;6.50;;;1.35;;
54263;SDS011;40178;53.042;6.406;2023-03-14T14:32:24;4.80;;;0.70;;
54263;SDS011;40178;53.042;6.406;2023-03-14T14:34:57;8.38;;;1.35;;
54263;SDS011;40178;53.042;6.406;2023-03-14T14:39:56;4.00;;;0.88;;
54263;SDS011;40178;53.042;6.406;2023-03-14T14:42:25;6.95;;;0.85;;
54263;SDS011;40178;53.042;6.406;2023-03-14T14:44:53;3.05;;;0.70;;
54263;SDS011;40178;53.042;6.406;2023-03-14T14:47:22;7.05;;;1.05;;
54263;SDS011;40178;53.042;6.406;2023-03-14T14:49:49;8.45;;;0.73;;
54263;SDS011;40178;53.042;6.406;2023-03-14T14:52:19;7.22;;;0.93;;
54263;SDS011;40178;53.042;6.406;2023-03-14T14:55:16;7.00;;;0.80;;
54263;SDS011;40178;53.042;6.406;2023-03-14T14:57:50;4.10;;;0.88;;
54263;SDS011;40178;53.042;6.406;2023-03-14T15:00:19;5.47;;;0.60;;
54263;SDS011;40178;53.042;6.406;2023-03-14T15:02:47;4.47;;;0.55;;
54263;SDS011;40178;53.042;6.406;2023-03-14T15:05:15;4.18;;;0.57;;
54263;SDS011;40178;53.042;6.406;2023-03-14T15:07:45;1.55;;;0.32;;
54263;SDS011;40178;53.042;6.406;2023-03-14T15:10:12;4.32;;;0.63;;
54263;SDS011;40178;53.042;6.406;2023-03-14T15:12:40;2.90;;;0.70;;
54263;SDS011;40178;53.042;6.406;2023-03-14T15:15:05;4.18;;;0.68;;
54263;SDS011;40178;53.042;6.406;2023-03-14T15:17:32;2.08;;;0.57;;
54263;SDS011;40178;53.042;6.406;2023-03-14T15:19:58;6.03;;;1.08;;
54263;SDS011;40178;53.042;6.406;2023-03-14T15:22:24;7.63;;;0.75;;
54263;SDS011;40178;53.042;6.406;2023-03-14T15:24:50;3.33;;;0.55;;
54263;SDS011;40178;53.042;6.406;2023-03-14T15:27:16;3.95;;;0.60;;
54263;SDS011;40178;53.042;6.406;2023-03-14T15:29:43;5.72;;;0.90;;
54263;SDS011;40178;53.042;6.406;2023-03-14T15:32:13;5.93;;;0.95;;
54263;SDS011;40178;53.042;6.406;2023-03-14T15:34:40;4.25;;;0.85;;
54263;SDS011;40178;53.042;6.406;2023-03-14T15:37:12;7.03;;;1.15;;
54263;SDS011;40178;53.042;6.406;2023-03-14T15:39:40;6.57;;;0.80;;
54263;SDS011;40178;53.042;6.406;2023-03-14T15:42:07;4.72;;;0.55;;
54263;SDS011;40178;53.042;6.406;2023-03-14T15:44:32;3.72;;;1.23;;
54263;SDS011;40178;53.042;6.406;2023-03-14T15:46:58;10.38;;;1.20;;
54263;SDS011;40178;53.042;6.406;2023-03-14T15:49:24;5.88;;;0.75;;
54263;SDS011;40178;53.042;6.406;2023-03-14T15:51:49;5.85;;;0.95;;
54263;SDS011;40178;53.042;6.406;2023-03-14T15:54:15;4.85;;;0.55;;
54263;SDS011;40178;53.042;6.406;2023-03-14T15:56:40;3.95;;;0.55;;
54263;SDS011;40178;53.042;6.406;2023-03-14T15:59:06;6.10;;;0.52;;
54263;SDS011;40178;53.042;6.406;2023-03-14T16:01:32;5.20;;;0.57;;
54263;SDS011;40178;53.042;6.406;2023-03-14T16:03:57;3.63;;;0.40;;
54263;SDS011;40178;53.042;6.406;2023-03-14T16:06:23;5.53;;;0.90;;
54263;SDS011;40178;53.042;6.406;2023-03-14T16:08:48;4.90;;;0.68;;
54263;SDS011;40178;53.042;6.406;2023-03-14T16:11:15;5.28;;;0.98;;